Briefing drone pour Saint-martin-d'heres

Rechercher une autre localisation

Conditions de vol :


Nous sommes le : Jeudi 17 juin 2021
Il est 19:40 UTC (21:40 LT)

Lever de soleil : 03:22 UTC (05:22 LT)
Coucher de soleil : 19:52 UTC (21:52 LT)

Météo

L'essentiel des conditions de vol

VIGILANCE MÉTÉO FRANCE - Isère (38)
Vigilance Jaune : Canicule / Inondation / Orages
METAR de LFLS
LFLS 171930Z AUTO 21004KT 160V240 CAVOK 24/17 Q1014 TEMPO FEW090TCU

Date d'émission: 17/06/2021
Heure d'émission: 19:30 UTC
Vent: 210° (variable du 160° au 240°) pour 4 KT (7 km/h)
Visibilité horizontale: > 10 km
Plafond : Plafond et visibilité OK (CAVOK)
Température: 24 °C
Point de rosée: 17 °C
Humidité: 65%
Pression (QNH): 1014 hPa

Temporairement:

Plafond :
- Peu de nuages à 9000ft (2743m)
TAF de LFLS
LFLS 171921Z 1719/1815 CNL

Conditions prévues :

Heure d'émission : Bulletin éffectué le 17 à 19:00 UTC
Prévision : Valide du 17 a 19:00 UTC au 18 a 15:00 UTC
Nuages : à 0ft (0 m)
WEBCAM POUR SAINT-MARTIN-D'HERES

Réglementation

Voler en sécurité

CARTES AERONAUTIQUE 1/500.000
CARTES VAC (LFLS)
SUP AIP




Chargement des AIP...
NOTAM (SAINT-MARTIN-D'HERES + Terrain à proximité / FIR )




Chargement des NOTAMS...
CONTACT PREFECTURE 38


Avertissement : Les données mises à disposition sont indicatives. Oxygène Drone ne pourra être tenu responsable de dégâts causés aux biens et aux personnes.